createdAt,value
2017-10-07T00:00:57.195Z,10.51
2017-10-07T00:02:09.062Z,10.55
2017-10-07T00:03:15.894Z,10.50
2017-10-07T00:04:22.877Z,10.49
2017-10-07T00:05:30.045Z,10.48
2017-10-07T00:06:42.735Z,10.51
2017-10-07T00:07:48.794Z,10.55
2017-10-07T00:08:54.965Z,10.56
2017-10-07T00:10:06.459Z,10.57
2017-10-07T00:11:12.641Z,10.57
2017-10-07T00:12:18.726Z,10.57
2017-10-07T00:13:28.445Z,10.59
2017-10-07T00:14:37.000Z,10.61
2017-10-07T00:15:45.252Z,10.61
2017-10-07T00:16:53.098Z,10.63
2017-10-07T00:17:59.548Z,10.65
2017-10-07T00:19:05.626Z,10.67
2017-10-07T00:20:21.998Z,10.69
2017-10-07T00:21:31.384Z,10.74
2017-10-07T00:22:50.099Z,10.74
2017-10-07T00:24:03.047Z,10.70
2017-10-07T00:25:14.835Z,10.73
2017-10-07T00:26:21.367Z,10.73
2017-10-07T00:27:28.351Z,10.70
2017-10-07T00:28:34.574Z,10.67
2017-10-07T00:29:40.698Z,10.70
2017-10-07T00:30:46.763Z,10.71
2017-10-07T00:31:52.870Z,10.68
2017-10-07T00:33:06.145Z,10.68
2017-10-07T00:34:24.880Z,10.68
2017-10-07T00:35:31.192Z,10.70
2017-10-07T00:36:36.991Z,10.70
2017-10-07T00:37:43.099Z,10.69
2017-10-07T00:38:49.162Z,10.72
2017-10-07T00:39:54.990Z,10.70
2017-10-07T00:41:12.316Z,10.69
2017-10-07T00:42:22.975Z,10.69
2017-10-07T00:43:28.669Z,10.71
2017-10-07T00:44:34.727Z,10.72
2017-10-07T00:45:42.089Z,10.70
2017-10-07T00:46:51.738Z,10.70
2017-10-07T00:48:14.333Z,10.71
2017-10-07T00:49:24.061Z,10.72
2017-10-07T00:50:30.128Z,10.73
2017-10-07T00:51:36.214Z,10.74
2017-10-07T00:52:41.948Z,10.73
2017-10-07T00:53:48.330Z,10.71
2017-10-07T00:54:54.074Z,10.75
2017-10-07T00:56:03.502Z,10.77
2017-10-07T00:57:16.902Z,10.76
2017-10-07T00:58:25.844Z,10.75
2017-10-07T00:59:42.362Z,10.77
2017-10-07T01:00:50.285Z,10.78
2017-10-07T01:01:54.751Z,10.85
2017-10-07T01:03:11.343Z,10.83
2017-10-07T01:04:17.428Z,10.80
2017-10-07T01:05:23.527Z,10.80
2017-10-07T01:06:29.394Z,10.79
2017-10-07T01:07:36.119Z,10.76
2017-10-07T01:08:43.206Z,10.75
2017-10-07T01:10:01.570Z,10.75
2017-10-07T01:11:08.326Z,10.78
2017-10-07T01:12:14.385Z,10.76
2017-10-07T01:13:21.828Z,10.74
2017-10-07T01:14:33.449Z,10.75
2017-10-07T01:15:44.096Z,10.75
2017-10-07T01:16:50.186Z,10.79
2017-10-07T01:17:57.034Z,10.77
2017-10-07T01:19:03.128Z,10.76
2017-10-07T01:20:08.524Z,10.78
2017-10-07T01:21:21.393Z,10.82
2017-10-07T01:22:35.521Z,10.78
2017-10-07T01:23:43.998Z,10.77
2017-10-07T01:24:49.393Z,10.78
2017-10-07T01:25:56.412Z,10.77
2017-10-07T01:27:04.512Z,10.78
2017-10-07T01:28:10.480Z,10.81
2017-10-07T01:29:17.637Z,10.80
2017-10-07T01:30:23.777Z,10.81
2017-10-07T01:31:30.969Z,10.82
2017-10-07T01:32:36.346Z,10.81
2017-10-07T01:33:42.803Z,10.80
2017-10-07T01:34:50.249Z,10.81
2017-10-07T01:35:55.992Z,10.83
2017-10-07T01:37:04.693Z,10.81
2017-10-07T01:38:10.076Z,10.82
2017-10-07T01:39:15.555Z,10.89
2017-10-07T01:40:22.822Z,10.86
2017-10-07T01:41:28.909Z,10.87
2017-10-07T01:42:34.632Z,10.87
2017-10-07T01:43:41.023Z,10.86
2017-10-07T01:44:54.898Z,10.83
2017-10-07T01:46:07.467Z,10.86
2017-10-07T01:47:15.753Z,10.84
2017-10-07T01:48:21.576Z,10.86
2017-10-07T01:49:27.986Z,10.93
2017-10-07T01:50:34.105Z,10.87
2017-10-07T01:51:45.720Z,10.88
2017-10-07T01:52:54.486Z,10.90
2017-10-07T01:54:00.987Z,10.93
2017-10-07T01:55:09.354Z,10.96
2017-10-07T01:56:27.938Z,10.92
2017-10-07T01:57:36.892Z,10.91
2017-10-07T01:58:43.479Z,10.93
2017-10-07T01:59:50.586Z,10.94
2017-10-07T02:01:03.017Z,10.94
2017-10-07T02:02:18.671Z,10.97
2017-10-07T02:03:24.830Z,10.99
2017-10-07T02:04:31.798Z,10.98
2017-10-07T02:05:45.958Z,10.99
2017-10-07T02:06:59.950Z,10.97
2017-10-07T02:08:06.235Z,10.96
2017-10-07T02:09:12.855Z,10.93
2017-10-07T02:10:22.778Z,10.98
2017-10-07T02:11:28.907Z,10.97
2017-10-07T02:12:35.009Z,10.96
2017-10-07T02:13:41.146Z,10.93
2017-10-07T02:14:57.099Z,10.94
2017-10-07T02:16:15.165Z,10.98
2017-10-07T02:17:22.050Z,10.95
2017-10-07T02:18:27.937Z,10.91
2017-10-07T02:19:42.008Z,10.92
2017-10-07T02:20:53.068Z,10.91
2017-10-07T02:22:00.827Z,10.88
2017-10-07T02:23:14.159Z,10.86
2017-10-07T02:24:21.984Z,10.89
2017-10-07T02:25:28.111Z,10.86
2017-10-07T02:26:34.218Z,10.88
2017-10-07T02:27:44.490Z,10.90
2017-10-07T02:28:50.566Z,10.89
2017-10-07T02:29:56.631Z,10.84
2017-10-07T02:31:05.682Z,10.84
2017-10-07T02:32:21.114Z,10.87
2017-10-07T02:33:37.948Z,10.88
2017-10-07T02:34:44.034Z,10.88
2017-10-07T02:35:55.112Z,10.90
2017-10-07T02:37:03.050Z,10.89
2017-10-07T02:38:09.159Z,10.90
2017-10-07T02:39:15.243Z,10.93
2017-10-07T02:40:22.199Z,10.90
2017-10-07T02:41:28.395Z,10.90
2017-10-07T02:42:34.090Z,10.89
2017-10-07T02:43:41.186Z,10.89
2017-10-07T02:44:48.606Z,10.89
2017-10-07T02:45:54.687Z,10.94
2017-10-07T02:47:00.811Z,10.96
2017-10-07T02:48:07.029Z,10.93
2017-10-07T02:49:13.320Z,10.92
2017-10-07T02:50:24.226Z,10.92
2017-10-07T02:51:34.958Z,10.93
2017-10-07T02:52:41.294Z,10.94
2017-10-07T02:53:47.401Z,10.93
2017-10-07T02:54:53.457Z,10.93
2017-10-07T02:55:59.586Z,10.90
2017-10-07T02:57:06.639Z,10.88
2017-10-07T02:58:13.019Z,10.88
2017-10-07T02:59:21.111Z,10.90
2017-10-07T03:00:29.798Z,10.91
2017-10-07T03:01:41.332Z,10.91
2017-10-07T03:02:55.301Z,10.91
2017-10-07T03:04:09.329Z,10.91
2017-10-07T03:05:23.325Z,10.88
2017-10-07T03:06:37.341Z,10.87
2017-10-07T03:07:51.351Z,10.87
2017-10-07T03:09:07.392Z,10.88
2017-10-07T03:10:24.419Z,10.90
2017-10-07T03:11:35.457Z,10.88
2017-10-07T03:12:41.520Z,10.89
2017-10-07T03:13:53.725Z,10.87
2017-10-07T03:14:59.846Z,10.88
2017-10-07T03:16:08.505Z,10.86
2017-10-07T03:17:19.573Z,10.89
2017-10-07T03:18:32.513Z,10.88
2017-10-07T03:19:45.363Z,10.86
2017-10-07T03:20:51.491Z,10.85
2017-10-07T03:21:58.663Z,10.85
2017-10-07T03:23:07.764Z,10.85
2017-10-07T03:24:13.835Z,10.85
2017-10-07T03:25:19.905Z,10.86
2017-10-07T03:26:26.848Z,10.88
2017-10-07T03:27:35.667Z,10.86
2017-10-07T03:28:53.630Z,10.86
2017-10-07T03:30:07.513Z,10.86
2017-10-07T03:31:13.672Z,10.86
2017-10-07T03:32:19.775Z,10.90
2017-10-07T03:33:25.690Z,10.88
2017-10-07T03:34:42.652Z,10.89
2017-10-07T03:35:56.822Z,10.92
2017-10-07T03:37:04.839Z,10.88
2017-10-07T03:38:13.615Z,10.89
2017-10-07T03:39:20.685Z,10.88
2017-10-07T03:40:27.316Z,10.89
2017-10-07T03:41:43.627Z,10.88
2017-10-07T03:42:51.450Z,10.90
2017-10-07T03:44:01.130Z,10.86
2017-10-07T03:45:10.040Z,10.86
2017-10-07T03:46:15.990Z,10.88
2017-10-07T03:47:22.066Z,10.89
2017-10-07T03:48:27.983Z,10.89
2017-10-07T03:49:34.101Z,10.86
2017-10-07T03:50:40.676Z,10.86
2017-10-07T03:51:48.070Z,10.86
2017-10-07T03:52:54.878Z,10.81
2017-10-07T03:54:01.787Z,10.80
2017-10-07T03:55:08.824Z,10.79
2017-10-07T03:57:44.545Z,10.81
2017-10-07T03:58:51.614Z,10.77
2017-10-07T04:00:03.834Z,10.75
2017-10-07T04:01:13.395Z,10.75
2017-10-07T04:02:19.475Z,10.79
2017-10-07T04:03:29.728Z,10.78
2017-10-07T04:04:36.270Z,10.75
2017-10-07T04:05:52.800Z,10.74
2017-10-07T04:07:07.757Z,10.73
2017-10-07T04:08:15.664Z,10.74
2017-10-07T04:09:21.753Z,10.75
2017-10-07T04:10:27.631Z,10.78
2017-10-07T04:11:42.026Z,10.83
2017-10-07T04:12:48.109Z,10.82
2017-10-07T04:13:59.010Z,10.82
2017-10-07T04:15:05.946Z,10.77
2017-10-07T04:16:12.074Z,10.76
2017-10-07T04:17:17.989Z,10.77
2017-10-07T04:18:24.123Z,10.79
2017-10-07T04:19:31.244Z,10.80
2017-10-07T04:20:39.382Z,10.78
2017-10-07T04:21:51.944Z,10.79
2017-10-07T04:23:04.099Z,10.80
2017-10-07T04:24:10.205Z,10.82
2017-10-07T04:25:17.050Z,10.84
2017-10-07T04:26:23.400Z,10.86
2017-10-07T04:27:34.544Z,10.86
2017-10-07T04:28:40.606Z,10.85
2017-10-07T04:29:48.185Z,10.84
2017-10-07T04:30:56.074Z,10.84
2017-10-07T04:32:02.483Z,10.83
2017-10-07T04:33:09.812Z,10.84
2017-10-07T04:34:16.604Z,10.83
2017-10-07T04:35:22.676Z,10.84
2017-10-07T04:36:28.819Z,10.86
2017-10-07T04:37:34.944Z,10.89
2017-10-07T04:38:47.168Z,10.90
2017-10-07T04:40:01.165Z,10.85
2017-10-07T04:41:15.139Z,10.85
2017-10-07T04:42:29.155Z,10.83
2017-10-07T04:43:40.079Z,10.82
2017-10-07T04:44:48.033Z,10.80
2017-10-07T04:45:54.657Z,10.80
2017-10-07T04:47:06.183Z,10.83
2017-10-07T04:48:18.145Z,10.81
2017-10-07T04:49:26.266Z,10.80
2017-10-07T04:50:39.307Z,10.80
2017-10-07T04:51:56.175Z,10.80
2017-10-07T04:53:02.908Z,10.81
2017-10-07T04:54:12.934Z,10.81
2017-10-07T04:55:20.100Z,10.83
2017-10-07T04:56:27.319Z,10.82
2017-10-07T04:57:33.401Z,10.79
2017-10-07T04:58:40.383Z,10.82
2017-10-07T04:59:50.268Z,10.80
2017-10-07T05:00:56.229Z,10.78
2017-10-07T05:02:02.125Z,10.80
2017-10-07T05:03:08.237Z,10.78
2017-10-07T05:04:15.302Z,10.76
2017-10-07T05:05:25.539Z,10.78
2017-10-07T05:06:34.925Z,10.77
2017-10-07T05:07:44.708Z,10.76
2017-10-07T05:08:51.372Z,10.74
2017-10-07T05:09:58.298Z,10.73
2017-10-07T05:11:08.446Z,10.75
2017-10-07T05:12:15.200Z,10.78
2017-10-07T05:13:22.128Z,10.74
2017-10-07T05:14:30.625Z,10.78
2017-10-07T05:15:36.780Z,10.80
2017-10-07T05:16:44.181Z,10.81
2017-10-07T05:17:53.041Z,10.78
2017-10-07T05:18:58.960Z,10.77
2017-10-07T05:20:05.440Z,10.77
2017-10-07T05:21:11.926Z,10.77
2017-10-07T05:22:18.160Z,10.81
2017-10-07T05:23:27.474Z,10.84
2017-10-07T05:24:35.077Z,10.79
2017-10-07T05:25:43.335Z,10.78
2017-10-07T05:26:53.711Z,10.75
2017-10-07T05:27:59.800Z,10.73
2017-10-07T05:29:08.110Z,10.76
2017-10-07T05:30:16.207Z,10.77
2017-10-07T05:31:22.754Z,10.82
2017-10-07T05:32:29.967Z,10.78
2017-10-07T05:33:39.078Z,10.81
2017-10-07T05:34:45.909Z,10.76
2017-10-07T05:35:54.217Z,10.75
2017-10-07T05:37:02.700Z,10.75
2017-10-07T05:38:11.324Z,10.73
2017-10-07T05:39:17.637Z,10.74
2017-10-07T05:40:25.010Z,10.75
2017-10-07T05:41:34.898Z,10.75
2017-10-07T05:42:45.310Z,10.76
2017-10-07T05:43:51.828Z,10.77
2017-10-07T05:44:58.934Z,10.82
2017-10-07T05:46:06.392Z,10.82
2017-10-07T05:47:14.288Z,10.82
2017-10-07T05:48:25.099Z,10.87
2017-10-07T05:49:31.835Z,10.79
2017-10-07T05:50:39.114Z,10.81
2017-10-07T05:51:48.954Z,10.75
2017-10-07T05:52:55.072Z,10.77
2017-10-07T05:54:01.983Z,10.78
2017-10-07T05:55:09.162Z,10.77
2017-10-07T05:56:17.662Z,10.77
2017-10-07T05:57:24.136Z,10.79
2017-10-07T05:58:30.775Z,10.83
2017-10-07T05:59:36.887Z,10.82
2017-10-07T06:00:42.984Z,10.79
2017-10-07T06:01:49.203Z,10.80
2017-10-07T06:02:55.261Z,10.80
2017-10-07T06:04:01.356Z,10.78
2017-10-07T06:05:07.479Z,10.79
2017-10-07T06:06:14.383Z,10.82
2017-10-07T06:07:22.071Z,10.84
2017-10-07T06:08:28.169Z,10.89
2017-10-07T06:09:33.539Z,10.88
2017-10-07T06:10:42.393Z,10.90
2017-10-07T06:11:48.532Z,10.92
2017-10-07T06:12:54.899Z,10.92
2017-10-07T06:14:00.620Z,10.90
2017-10-07T06:15:06.764Z,10.92
2017-10-07T06:16:12.869Z,10.98
2017-10-07T06:17:19.796Z,10.98
2017-10-07T06:18:25.928Z,10.99
2017-10-07T06:19:31.999Z,11.00
2017-10-07T06:20:39.703Z,10.94
2017-10-07T06:21:48.468Z,10.95
2017-10-07T06:22:55.229Z,10.98
2017-10-07T06:24:01.635Z,10.95
2017-10-07T06:25:09.882Z,10.97
2017-10-07T06:26:22.977Z,10.85
2017-10-07T06:27:32.385Z,10.83
2017-10-07T06:28:40.714Z,10.88
2017-10-07T06:29:47.883Z,10.84
2017-10-07T06:30:53.941Z,10.85
2017-10-07T06:32:00.035Z,10.87
2017-10-07T06:33:06.827Z,10.76
2017-10-07T06:34:13.670Z,10.72
2017-10-07T06:35:20.055Z,10.63
2017-10-07T06:36:28.343Z,10.47
2017-10-07T06:37:35.223Z,10.33
2017-10-07T06:38:41.897Z,10.22
2017-10-07T06:39:49.635Z,10.21
2017-10-07T06:40:58.246Z,10.25
2017-10-07T06:42:04.505Z,10.25
2017-10-07T06:43:12.160Z,10.20
2017-10-07T06:44:20.094Z,10.21
2017-10-07T06:45:30.569Z,10.25
2017-10-07T06:46:40.713Z,10.31
2017-10-07T06:47:48.228Z,10.28
2017-10-07T06:48:55.992Z,10.30
2017-10-07T06:50:06.042Z,10.31
2017-10-07T06:51:17.290Z,10.32
2017-10-07T06:52:24.253Z,10.35
2017-10-07T06:53:31.646Z,10.37
2017-10-07T06:54:45.081Z,10.41
2017-10-07T06:55:51.877Z,10.39
2017-10-07T06:56:58.993Z,10.39
2017-10-07T06:58:07.524Z,10.34
2017-10-07T06:59:18.298Z,10.43
2017-10-07T07:00:25.157Z,10.44
2017-10-07T07:01:31.388Z,10.46
2017-10-07T07:02:38.461Z,10.46
2017-10-07T07:03:44.882Z,10.52
2017-10-07T07:04:51.651Z,10.65
2017-10-07T07:05:58.264Z,10.69
2017-10-07T07:07:04.567Z,10.73
2017-10-07T07:08:11.026Z,10.71
2017-10-07T07:09:19.006Z,10.84
2017-10-07T07:10:25.760Z,10.90
2017-10-07T07:11:34.412Z,11.02
2017-10-07T07:12:41.305Z,11.15
2017-10-07T07:13:47.795Z,11.16
2017-10-07T07:14:53.865Z,11.21
2017-10-07T07:16:00.220Z,11.21
2017-10-07T07:17:07.957Z,11.24
2017-10-07T07:18:15.934Z,11.23
2017-10-07T07:19:22.095Z,11.27
2017-10-07T07:20:29.197Z,11.22
2017-10-07T07:21:38.614Z,11.08
2017-10-07T07:22:47.206Z,11.15
2017-10-07T07:23:54.585Z,11.16
2017-10-07T07:25:00.796Z,11.24
2017-10-07T07:26:07.088Z,11.32
2017-10-07T07:27:13.662Z,11.34
2017-10-07T07:28:21.149Z,11.32
2017-10-07T07:29:27.878Z,11.34
2017-10-07T07:30:34.774Z,11.38
2017-10-07T07:31:41.320Z,11.43
2017-10-07T07:32:47.934Z,11.49
2017-10-07T07:33:55.331Z,11.56
2017-10-07T07:35:02.466Z,11.58
2017-10-07T07:36:08.764Z,11.58
2017-10-07T07:37:16.606Z,11.63
2017-10-07T07:38:24.738Z,11.76
2017-10-07T07:39:31.895Z,11.83
2017-10-07T07:40:38.727Z,11.82
2017-10-07T07:41:48.615Z,11.95
2017-10-07T07:42:55.134Z,11.99
2017-10-07T07:44:03.003Z,11.93
2017-10-07T07:45:12.494Z,11.98
2017-10-07T07:46:19.979Z,12.06
2017-10-07T07:47:26.513Z,12.01
2017-10-07T07:48:34.754Z,11.89
2017-10-07T07:49:41.239Z,11.91
2017-10-07T07:50:48.321Z,12.01
2017-10-07T07:51:55.435Z,11.96
2017-10-07T07:53:03.990Z,11.84
2017-10-07T07:54:11.752Z,11.89
2017-10-07T07:55:19.654Z,11.91
2017-10-07T07:56:26.418Z,11.90
2017-10-07T07:57:35.074Z,11.89
2017-10-07T07:58:42.406Z,11.85
2017-10-07T07:59:49.273Z,11.83
2017-10-07T08:00:57.373Z,11.86
2017-10-07T08:02:05.061Z,11.81
2017-10-07T08:03:11.534Z,11.79
2017-10-07T08:04:18.761Z,11.80
2017-10-07T08:05:25.373Z,11.80
2017-10-07T08:06:31.680Z,11.88
2017-10-07T08:07:38.233Z,11.93
2017-10-07T08:08:45.622Z,12.00
2017-10-07T08:09:52.649Z,11.92
2017-10-07T08:10:59.539Z,11.87
2017-10-07T08:12:06.165Z,11.96
2017-10-07T08:13:12.632Z,11.88
2017-10-07T08:14:20.598Z,11.86
2017-10-07T08:15:28.108Z,11.94
2017-10-07T08:16:35.644Z,12.05
2017-10-07T08:17:42.065Z,12.09
2017-10-07T08:18:48.743Z,12.11
2017-10-07T08:19:57.188Z,12.24
2017-10-07T08:21:03.692Z,12.32
2017-10-07T08:22:11.072Z,12.29
2017-10-07T08:23:19.722Z,12.51
2017-10-07T08:24:26.812Z,12.45
2017-10-07T08:25:34.115Z,12.39
2017-10-07T08:26:40.290Z,12.33
2017-10-07T08:27:46.392Z,12.51
2017-10-07T08:28:56.424Z,12.50
2017-10-07T08:30:03.090Z,12.61
2017-10-07T08:31:09.236Z,12.60
2017-10-07T08:32:15.351Z,12.59
2017-10-07T08:33:22.163Z,12.62
2017-10-07T08:34:28.618Z,12.79
2017-10-07T08:35:34.701Z,12.64
2017-10-07T08:36:43.707Z,12.64
2017-10-07T08:37:50.030Z,12.59
2017-10-07T08:38:56.457Z,12.59
2017-10-07T08:40:05.227Z,12.48
2017-10-07T08:41:11.360Z,12.67
2017-10-07T08:42:17.523Z,12.75
2017-10-07T08:43:23.664Z,12.90
2017-10-07T08:44:33.011Z,12.91
2017-10-07T08:45:42.664Z,12.90
2017-10-07T08:46:48.770Z,13.08
2017-10-07T08:47:54.863Z,13.25
2017-10-07T08:49:01.647Z,13.27
2017-10-07T08:50:08.295Z,13.31
2017-10-07T08:51:14.695Z,13.40
2017-10-07T08:52:20.777Z,13.18
2017-10-07T08:53:26.868Z,12.80
2017-10-07T08:54:32.987Z,12.59
2017-10-07T08:55:40.235Z,12.65
2017-10-07T08:56:47.423Z,12.84
2017-10-07T08:57:53.520Z,12.83
2017-10-07T08:58:59.829Z,12.94
2017-10-07T09:00:05.760Z,12.97
2017-10-07T09:01:12.012Z,13.01
2017-10-07T09:02:20.711Z,12.94
2017-10-07T09:03:26.813Z,13.06
2017-10-07T09:04:34.882Z,13.14
2017-10-07T09:05:42.291Z,12.93
2017-10-07T09:06:50.208Z,13.08
2017-10-07T09:07:57.373Z,13.03
2017-10-07T09:09:04.786Z,13.03
2017-10-07T09:10:11.843Z,13.13
2017-10-07T09:11:19.040Z,12.95
2017-10-07T09:12:25.268Z,13.01
2017-10-07T09:13:31.377Z,13.04
2017-10-07T09:14:37.569Z,13.08
2017-10-07T09:15:43.924Z,13.02
2017-10-07T09:16:50.096Z,13.09
2017-10-07T09:17:57.345Z,12.93
2017-10-07T09:19:07.494Z,13.06
2017-10-07T09:20:17.701Z,13.01
2017-10-07T09:21:24.107Z,12.90
2017-10-07T09:22:30.246Z,12.94
2017-10-07T09:23:38.120Z,13.03
2017-10-07T09:24:44.268Z,13.01
2017-10-07T09:25:50.420Z,12.90
2017-10-07T09:26:58.035Z,12.85
2017-10-07T09:28:07.367Z,12.89
2017-10-07T09:29:13.717Z,13.03
2017-10-07T09:30:19.913Z,13.01
2017-10-07T09:31:26.870Z,13.01
2017-10-07T09:32:33.419Z,13.02
2017-10-07T09:33:39.535Z,13.03
2017-10-07T09:34:45.650Z,13.03
2017-10-07T09:35:51.929Z,13.07
2017-10-07T09:36:57.860Z,12.98
2017-10-07T09:38:04.242Z,12.80
2017-10-07T09:39:10.388Z,12.74
2017-10-07T09:40:16.482Z,12.71
2017-10-07T09:41:22.681Z,12.67
2017-10-07T09:42:28.645Z,12.69
2017-10-07T09:43:34.760Z,12.61
2017-10-07T09:44:41.078Z,12.54
2017-10-07T09:45:47.435Z,12.51
2017-10-07T09:46:53.500Z,12.42
2017-10-07T09:47:59.623Z,12.41
2017-10-07T09:49:06.472Z,12.47
2017-10-07T09:50:14.712Z,12.37
2017-10-07T09:51:20.803Z,12.36
2017-10-07T09:52:26.990Z,12.30
2017-10-07T09:53:33.091Z,12.30
2017-10-07T09:54:42.974Z,12.26
2017-10-07T09:55:49.303Z,12.29
2017-10-07T09:56:56.054Z,12.30
2017-10-07T09:58:04.991Z,12.31
2017-10-07T09:59:11.788Z,12.38
2017-10-07T10:00:17.888Z,12.33
2017-10-07T10:01:24.334Z,12.26
2017-10-07T10:02:33.260Z,12.27
2017-10-07T10:03:40.452Z,12.20
2017-10-07T10:04:46.355Z,12.20
2017-10-07T10:05:52.466Z,12.24
2017-10-07T10:06:58.626Z,12.25
2017-10-07T10:08:05.056Z,12.22
2017-10-07T10:09:11.112Z,12.30
2017-10-07T10:10:17.208Z,12.30
2017-10-07T10:11:23.281Z,12.34
2017-10-07T10:12:30.200Z,12.27
2017-10-07T10:13:37.272Z,12.25
2017-10-07T10:14:43.388Z,12.22
2017-10-07T10:15:49.859Z,12.22
2017-10-07T10:16:58.556Z,12.21
2017-10-07T10:18:04.860Z,12.26
2017-10-07T10:19:10.946Z,12.36
2017-10-07T10:20:17.214Z,12.40
2017-10-07T10:21:29.883Z,12.40
2017-10-07T10:22:36.013Z,12.40
2017-10-07T10:23:44.019Z,12.38
2017-10-07T10:24:52.197Z,12.31
2017-10-07T10:25:58.290Z,12.27
2017-10-07T10:27:05.278Z,12.40
2017-10-07T10:28:14.157Z,12.44
2017-10-07T10:29:24.230Z,12.52
2017-10-07T10:30:31.243Z,12.55
2017-10-07T10:31:37.349Z,12.53
2017-10-07T10:32:43.543Z,12.56
2017-10-07T10:33:49.654Z,12.51
2017-10-07T10:34:55.951Z,12.61
2017-10-07T10:36:02.079Z,12.53
2017-10-07T10:37:08.160Z,12.54
2017-10-07T10:38:14.304Z,12.66
2017-10-07T10:39:20.454Z,12.68
2017-10-07T10:40:26.578Z,12.77
2017-10-07T10:41:33.369Z,12.78
2017-10-07T10:42:40.041Z,12.80
2017-10-07T10:43:47.159Z,12.91
2017-10-07T10:44:52.970Z,12.93
2017-10-07T10:45:59.320Z,12.97
2017-10-07T10:47:06.348Z,12.97
2017-10-07T10:48:14.114Z,13.02
2017-10-07T10:49:20.183Z,12.95
2017-10-07T10:50:28.186Z,12.95
2017-10-07T10:51:35.256Z,12.94
2017-10-07T10:52:41.303Z,12.93
2017-10-07T10:53:47.678Z,12.94
2017-10-07T10:54:55.651Z,13.09
2017-10-07T10:56:01.818Z,13.04
2017-10-07T10:57:07.974Z,13.10
2017-10-07T10:58:14.342Z,13.18
2017-10-07T10:59:20.556Z,13.24
2017-10-07T11:00:26.635Z,13.25
2017-10-07T11:01:32.730Z,13.39
2017-10-07T11:02:38.659Z,13.31
2017-10-07T11:03:46.231Z,13.22
2017-10-07T11:04:53.360Z,13.30
2017-10-07T11:05:59.507Z,13.21
2017-10-07T11:07:05.633Z,13.35
2017-10-07T11:08:11.774Z,13.31
2017-10-07T11:09:17.891Z,13.41
2017-10-07T11:10:24.003Z,13.42
2017-10-07T11:11:30.970Z,13.44
2017-10-07T11:12:38.692Z,13.47
2017-10-07T11:13:46.690Z,13.55
2017-10-07T11:14:52.775Z,13.73
2017-10-07T11:15:58.884Z,13.67
2017-10-07T11:17:05.207Z,13.52
2017-10-07T11:18:11.416Z,13.40
2017-10-07T11:19:19.346Z,13.28
2017-10-07T11:20:26.423Z,13.21
2017-10-07T11:21:32.778Z,13.24
2017-10-07T11:22:43.718Z,13.23
2017-10-07T11:23:50.972Z,13.29
2017-10-07T11:24:57.134Z,13.26
2017-10-07T11:26:03.579Z,13.17
2017-10-07T11:27:13.190Z,13.13
2017-10-07T11:28:19.453Z,13.15
2017-10-07T11:29:25.663Z,12.99
2017-10-07T11:30:34.516Z,12.99
2017-10-07T11:31:40.639Z,13.08
2017-10-07T11:32:47.249Z,13.15
2017-10-07T11:33:54.580Z,13.30
2017-10-07T11:35:00.720Z,13.30
2017-10-07T11:36:06.873Z,13.18
2017-10-07T11:37:13.649Z,13.17
2017-10-07T11:38:20.788Z,13.13
2017-10-07T11:39:27.804Z,13.16
2017-10-07T11:40:34.602Z,13.29
2017-10-07T11:41:42.511Z,13.27
2017-10-07T11:42:49.244Z,13.16
2017-10-07T11:43:55.935Z,13.03
2017-10-07T11:45:04.007Z,13.00
2017-10-07T11:46:12.990Z,12.91
2017-10-07T11:47:19.112Z,12.94
2017-10-07T11:48:25.250Z,13.02
2017-10-07T11:49:31.314Z,13.01
2017-10-07T11:50:37.419Z,13.07
2017-10-07T11:51:43.657Z,13.19
2017-10-07T11:52:50.643Z,13.01
2017-10-07T11:53:56.789Z,13.14
2017-10-07T11:55:03.547Z,13.23
2017-10-07T11:56:09.678Z,13.30
2017-10-07T11:57:22.620Z,13.16
2017-10-07T11:58:28.938Z,13.04
2017-10-07T11:59:35.317Z,13.07
2017-10-07T12:00:43.267Z,13.12
2017-10-07T12:01:49.174Z,13.17
2017-10-07T12:02:55.299Z,13.18
2017-10-07T12:04:01.368Z,13.10
2017-10-07T12:05:10.558Z,13.06
2017-10-07T12:06:16.641Z,13.03
2017-10-07T12:07:22.827Z,13.01
2017-10-07T12:08:28.959Z,13.05
2017-10-07T12:09:35.066Z,12.99
2017-10-07T12:10:41.258Z,12.93
2017-10-07T12:11:49.255Z,12.96
2017-10-07T12:12:57.133Z,13.02
2017-10-07T12:14:04.153Z,12.99
2017-10-07T12:15:11.393Z,13.02
2017-10-07T12:16:18.570Z,13.14
2017-10-07T12:17:24.700Z,13.29
2017-10-07T12:18:31.142Z,13.33
2017-10-07T12:19:38.092Z,13.10
2017-10-07T12:20:48.423Z,13.12
2017-10-07T12:21:55.450Z,13.18
2017-10-07T12:23:01.358Z,13.27
2017-10-07T12:24:09.728Z,13.23
2017-10-07T12:25:15.837Z,13.28
2017-10-07T12:26:21.981Z,13.15
2017-10-07T12:27:31.994Z,13.13
2017-10-07T12:28:40.991Z,13.11
2017-10-07T12:29:48.310Z,13.11
2017-10-07T12:30:54.765Z,13.13
2017-10-07T12:32:03.581Z,12.99
2017-10-07T12:33:09.677Z,12.99
2017-10-07T12:34:15.810Z,12.84
2017-10-07T12:35:22.659Z,12.85
2017-10-07T12:36:28.746Z,12.80
2017-10-07T12:37:34.833Z,12.83
2017-10-07T12:38:41.101Z,12.72
2017-10-07T12:39:49.851Z,12.61
2017-10-07T12:40:56.767Z,12.61
2017-10-07T12:42:03.033Z,12.57
2017-10-07T12:43:10.059Z,12.53
2017-10-07T12:44:19.661Z,12.46
2017-10-07T12:45:26.367Z,12.42
2017-10-07T12:46:33.641Z,12.37
2017-10-07T12:47:40.378Z,12.40
2017-10-07T12:48:46.494Z,12.32
2017-10-07T12:49:52.955Z,12.29
2017-10-07T12:50:59.132Z,12.32
2017-10-07T12:52:05.957Z,12.34
2017-10-07T12:53:14.031Z,12.46
2017-10-07T12:54:20.104Z,12.47
2017-10-07T12:55:27.772Z,12.50
2017-10-07T12:56:34.794Z,12.48
2017-10-07T12:57:42.462Z,12.54
2017-10-07T12:58:51.405Z,12.61
2017-10-07T12:59:57.535Z,12.65
2017-10-07T13:01:03.694Z,12.59
2017-10-07T13:02:09.617Z,12.62
2017-10-07T13:03:15.748Z,12.62
2017-10-07T13:04:21.871Z,12.63
2017-10-07T13:05:29.122Z,12.58
2017-10-07T13:06:36.300Z,12.60
2017-10-07T13:07:42.407Z,12.57
2017-10-07T13:08:49.631Z,12.61
2017-10-07T13:09:55.782Z,12.62
2017-10-07T13:11:01.886Z,12.57
2017-10-07T13:12:08.034Z,12.55
2017-10-07T13:13:14.147Z,12.55
2017-10-07T13:14:20.519Z,12.59
2017-10-07T13:15:26.599Z,12.61
2017-10-07T13:16:33.609Z,12.72
2017-10-07T13:17:39.701Z,12.74
2017-10-07T13:18:46.136Z,12.65
2017-10-07T13:19:52.485Z,12.53
2017-10-07T13:20:58.572Z,12.61
2017-10-07T13:22:06.688Z,12.58
2017-10-07T13:23:13.846Z,12.57
2017-10-07T13:24:20.044Z,12.48
2017-10-07T13:25:26.910Z,12.45
2017-10-07T13:26:34.545Z,12.46
2017-10-07T13:27:41.113Z,12.48
2017-10-07T13:28:47.207Z,12.41
2017-10-07T13:29:53.317Z,12.45
2017-10-07T13:30:59.343Z,12.52
2017-10-07T13:32:05.458Z,12.54
2017-10-07T13:33:11.559Z,12.60
2017-10-07T13:34:18.519Z,12.59
2017-10-07T13:35:26.330Z,12.58
2017-10-07T13:36:34.390Z,12.60
2017-10-07T13:37:41.646Z,12.62
2017-10-07T13:38:48.346Z,12.52
2017-10-07T13:39:57.006Z,12.36
2017-10-07T13:41:03.174Z,12.35
2017-10-07T13:42:09.726Z,12.28
2017-10-07T13:43:17.260Z,12.19
2017-10-07T13:44:23.355Z,12.21
2017-10-07T13:45:31.262Z,12.19
2017-10-07T13:46:37.730Z,12.11
2017-10-07T13:47:43.920Z,12.06
2017-10-07T13:48:50.913Z,12.00
2017-10-07T13:49:57.018Z,11.98
2017-10-07T13:51:03.136Z,11.89
2017-10-07T13:52:09.297Z,11.85
2017-10-07T13:53:15.490Z,11.80
2017-10-07T13:54:23.669Z,11.75
2017-10-07T13:55:31.686Z,11.65
2017-10-07T13:56:37.569Z,11.58
2017-10-07T13:57:45.936Z,11.54
2017-10-07T13:58:52.074Z,11.50
2017-10-07T13:59:58.772Z,11.43
2017-10-07T14:01:05.827Z,11.36
2017-10-07T14:02:11.928Z,11.36
2017-10-07T14:03:18.952Z,11.35
2017-10-07T14:04:25.082Z,11.24
2017-10-07T14:05:31.283Z,11.15
2017-10-07T14:06:36.994Z,11.07
2017-10-07T14:07:43.097Z,11.06
2017-10-07T14:08:50.201Z,11.10
2017-10-07T14:09:58.883Z,11.01
2017-10-07T14:11:06.664Z,10.94
2017-10-07T14:12:12.758Z,10.92
2017-10-07T14:13:18.858Z,10.84
2017-10-07T14:14:24.954Z,10.83
2017-10-07T14:15:31.089Z,10.74
2017-10-07T14:16:37.879Z,10.65
2017-10-07T14:17:44.446Z,10.66
2017-10-07T14:18:55.687Z,10.73
2017-10-07T14:20:01.793Z,10.69
2017-10-07T14:21:07.901Z,10.67
2017-10-07T14:22:13.978Z,10.72
2017-10-07T14:23:20.117Z,10.63
2017-10-07T14:24:26.526Z,10.64
2017-10-07T14:25:32.608Z,10.62
2017-10-07T14:26:38.719Z,10.54
2017-10-07T14:27:44.927Z,10.48
2017-10-07T14:28:51.466Z,10.49
2017-10-07T14:30:01.180Z,10.58
2017-10-07T14:31:07.076Z,10.68
2017-10-07T14:32:14.363Z,10.71
2017-10-07T14:33:20.454Z,10.73